MMVR/VER METAR and TAF weather

Enter ICAO airport designator
Station Type Date Time Source
MMVR METAR 2021/06/24 04:46 UTC NOAA

MMVR 240446Z 00000KT 7SM SCT060 SCT220 28/25 A3000 RMK 8/063 HZY DSNT CB 2ND AND 3RD QUAD LTGICCC


Station Type Date Time Source
MMVR Decoded METAR 2021/06/24 04:46 UTC NOAA

Veracruz / Las Bajadas / General Heriberto Jara, Mexico (MMVR) 19-09N 096-11W
Jun 24, 2021 - 12:46 AM EDT / 2021.06.24 0446 UTC
Wind: Calm:0
Visibility: 7 mile(s):0
Sky conditions: partly cloudy
Weather: Cumulonimbus clouds, lightning observed
Temperature: 82 F (28 C)
Dew Point: 77 F (25 C)
Relative Humidity: 83%
Pressure (altimeter): 30 in. Hg (1015 hPa)
ob: MMVR 240446Z 00000KT 7SM SCT060 SCT220 28/25 A3000 RMK 8/063 HZY DSNT CB 2ND AND 3RD QUAD LTGICCC
cycle: 5

Station Type Date Time Source
MMVR TAF 2021/06/24 06:46 UTC NOAA

TAF MMVR 240439Z 2406/2506 00000KT P6SM SCT010 SCT220 TN22/2411Z TX34/2421Z
TEMPO 2411/2415 5SM HZ BKN012
FM241500 14012KT P6SM SCT015 BKN220
BECMG 2502/2503 10005KT

Example: see airport list